Time;durP1;ratioP1;P1;durP2;ratioP2;P2;SDS_P1;SDS_P2;PMS_P1;PMS_P2;Temp;Humidity;BMP_temperature;BMP_pressure;BME280_temperature;BME280_humidity;BME280_pressure;Samples;Min_cycle;Max_cycle;Signal;HPM_P1;HPM_P2
2022/11/01 00:01:49;;;;;;;11.10;3.85;;;;;;;12.11;59.56;95522.91;5056967;28;20039;-73
2022/11/01 00:04:14;;;;;;;9.27;4.07;;;;;;;12.04;59.34;95510.38;5069323;28;20395;-73
2022/11/01 00:06:40;;;;;;;8.52;4.18;;;;;;;12.07;59.76;95524.94;5053477;28;20036;-73
2022/11/01 00:09:06;;;;;;;8.15;3.90;;;;;;;12.13;59.39;95519.25;5054450;28;20518;-73
2022/11/01 00:11:31;;;;;;;7.78;3.80;;;;;;;11.97;59.89;95526.56;5061984;28;20426;-73
2022/11/01 00:13:57;;;;;;;10.45;4.50;;;;;;;11.74;60.29;95515.31;5040013;28;20032;-73
2022/11/01 00:16:22;;;;;;;7.72;4.47;;;;;;;11.62;60.40;95497.06;5050714;28;20029;-73
2022/11/01 00:18:48;;;;;;;6.50;4.05;;;;;;;11.63;60.91;95523.91;5049414;28;20040;-73
2022/11/01 00:21:13;;;;;;;6.50;3.85;;;;;;;11.74;60.54;95529.13;5052003;28;20048;-73
2022/11/01 00:23:39;;;;;;;9.23;4.25;;;;;;;11.79;60.46;95534.00;5057145;28;20595;-74
2022/11/01 00:26:05;;;;;;;6.80;4.03;;;;;;;11.83;60.19;95525.00;5057891;28;20029;-73
2022/11/01 00:28:30;;;;;;;7.78;4.00;;;;;;;11.73;60.42;95521.44;5043388;28;20402;-72
2022/11/01 00:30:56;;;;;;;6.47;4.43;;;;;;;11.67;60.57;95514.09;5035576;28;20086;-73
2022/11/01 00:33:22;;;;;;;16.13;7.85;;;;;;;11.60;60.79;95529.34;5067246;28;20032;-73
2022/11/01 00:35:47;;;;;;;8.20;3.85;;;;;;;11.69;60.90;95527.84;5036014;28;20037;-73
2022/11/01 00:38:13;;;;;;;9.90;4.25;;;;;;;11.74;60.63;95528.31;5052433;28;20479;-73
2022/11/01 00:40:39;;;;;;;7.68;3.97;;;;;;;11.70;60.83;95530.34;5061091;28;20498;-73
2022/11/01 00:43:04;;;;;;;7.80;4.10;;;;;;;11.70;60.75;95532.09;5071016;28;20066;-73
2022/11/01 00:45:30;;;;;;;5.78;3.85;;;;;;;11.59;60.85;95528.53;5055233;28;20040;-73
2022/11/01 00:47:55;;;;;;;9.07;4.65;;;;;;;11.39;61.45;95517.03;5034833;28;20033;-73
2022/11/01 00:50:21;;;;;;;10.75;4.95;;;;;;;11.37;61.52;95534.53;5053325;28;20033;-73
2022/11/01 00:52:46;;;;;;;8.70;4.63;;;;;;;11.39;61.55;95537.84;5065661;28;20041;-73
2022/11/01 00:55:12;;;;;;;9.63;4.35;;;;;;;11.36;61.83;95539.81;5052780;28;20399;-72
2022/11/01 00:57:37;;;;;;;6.68;4.10;;;;;;;11.30;61.79;95525.50;5065660;28;20509;-73
2022/11/01 01:00:03;;;;;;;10.93;4.22;;;;;;;11.34;61.88;95541.72;5050583;28;20037;-73
2022/11/01 01:02:29;;;;;;;10.93;4.50;;;;;;;11.22;62.12;95529.63;5055519;28;20059;-73
2022/11/01 01:04:54;;;;;;;8.45;4.47;;;;;;;11.28;62.19;95536.97;5046819;28;20033;-73
2022/11/01 01:07:19;;;;;;;7.40;4.50;;;;;;;11.26;62.07;95531.06;5017763;28;20037;-73
2022/11/01 01:09:45;;;;;;;6.90;4.18;;;;;;;11.19;62.19;95536.69;5054269;28;20045;-73
2022/11/01 01:12:10;;;;;;;7.53;3.80;;;;;;;11.25;61.93;95524.19;5065631;28;20040;-73
2022/11/01 01:14:36;;;;;;;8.23;4.53;;;;;;;11.28;61.96;95529.16;5035183;28;20540;-73
2022/11/01 01:17:01;;;;;;;10.45;4.47;;;;;;;11.19;62.25;95534.09;5034175;28;20056;-73
2022/11/01 01:19:27;;;;;;;9.15;3.85;;;;;;;11.18;62.18;95524.66;5061363;28;20037;-73
2022/11/01 01:21:53;;;;;;;8.70;4.18;;;;;;;11.15;62.26;95529.25;5053872;28;20039;-73
2022/11/01 01:24:18;;;;;;;10.95;4.22;;;;;;;11.16;62.34;95517.91;5067535;28;20024;-73
2022/11/01 01:26:44;;;;;;;6.63;3.92;;;;;;;11.17;62.23;95522.16;5085530;28;20032;-73
2022/11/01 01:29:09;;;;;;;6.57;4.05;;;;;;;11.14;62.51;95528.44;5065021;28;20486;-73
2022/11/01 01:31:35;;;;;;;5.70;3.53;;;;;;;11.16;62.45;95534.31;5055532;28;20417;-74
2022/11/01 01:34:00;;;;;;;7.13;4.22;;;;;;;11.15;62.45;95524.88;5051518;28;20139;-73
2022/11/01 01:36:26;;;;;;;6.97;4.40;;;;;;;11.09;62.82;95530.53;5065894;28;20024;-73
2022/11/01 01:38:52;;;;;;;7.78;4.60;;;;;;;10.98;62.85;95512.28;5052414;28;20098;-73
2022/11/01 01:44:02;;;;;;;9.80;4.55;;;;;;;10.97;63.36;95536.63;5069475;28;20074;-73
2022/11/01 01:46:27;;;;;;;9.45;4.80;;;;;;;10.92;62.97;95528.31;5051717;28;20021;-73
2022/11/01 01:48:55;;;;;;;7.82;4.20;;;;;;;10.96;63.09;95537.56;5049721;28;20068;-73
2022/11/01 01:51:22;;;;;;;9.32;4.25;;;;;;;10.92;63.09;95523.97;5017953;28;20035;-73
2022/11/01 01:53:52;;;;;;;8.73;4.30;;;;;;;10.78;63.56;95524.16;5048228;28;20062;-73
2022/11/01 01:56:29;;;;;;;6.85;4.03;;;;;;;10.83;63.17;95529.81;5050928;28;20039;-73
2022/11/01 01:59:15;;;;;;;7.15;4.00;;;;;;;10.99;63.03;95536.50;5035919;28;20150;-73
2022/11/01 02:01:40;;;;;;;7.93;3.72;;;;;;;10.98;63.04;95534.84;5077253;28;20094;-73
2022/11/01 02:04:27;;;;;;;6.80;3.95;;;;;;;10.98;63.12;95545.22;5066105;28;20032;-73
2022/11/01 02:06:52;;;;;;;8.30;4.18;;;;;;;10.99;63.17;95545.13;5035563;28;20090;-73
2022/11/01 02:09:18;;;;;;;6.43;3.90;;;;;;;11.01;62.65;95539.84;5035978;28;20056;-73
2022/11/01 02:11:43;;;;;;;12.68;4.50;;;;;;;10.96;62.92;95545.38;5052315;28;20032;-73
2022/11/01 02:14:09;;;;;;;8.18;4.68;;;;;;;10.86;63.37;95545.19;5060172;28;20033;-73
2022/11/01 02:16:56;;;;;;;7.20;3.90;;;;;;;10.89;63.01;95538.94;5060643;28;20510;-74
2022/11/01 02:19:46;;;;;;;6.25;3.92;;;;;;;10.95;62.69;95548.91;5059120;28;20044;-73
2022/11/01 02:22:41;;;;;;;6.47;3.20;;;;;;;10.87;63.25;95546.03;5060323;28;20033;-73
2022/11/01 02:25:25;;;;;;;5.85;3.85;;;;;;;10.87;63.23;95559.03;5062863;28;20054;-73
2022/11/01 02:28:01;;;;;;;6.57;3.67;;;;;;;10.82;63.13;95548.13;5067817;28;20117;-73
2022/11/01 02:30:43;;;;;;;6.70;3.33;;;;;;;10.62;63.39;95540.00;5052998;28;20044;-73
2022/11/01 02:33:13;;;;;;;8.90;4.10;;;;;;;10.68;63.77;95551.72;5043387;28;20029;-73
2022/11/01 02:35:42;;;;;;;9.90;4.40;;;;;;;10.63;63.71;95559.84;5068346;28;20476;-73
2022/11/01 02:38:07;;;;;;;10.52;5.50;;;;;;;10.57;64.34;95555.09;5068292;28;20067;-73
2022/11/01 02:41:10;;;;;;;7.82;5.80;;;;;;;10.52;64.23;95564.97;5068942;28;20052;-73
2022/11/01 02:43:51;;;;;;;10.18;6.18;;;;;;;10.51;64.40;95569.34;5064814;28;20076;-73
2022/11/01 02:49:00;;;;;;;8.82;4.15;;;;;;;10.21;65.52;95543.72;5066081;28;20048;-73
2022/11/01 02:51:25;;;;;;;9.02;4.03;;;;;;;10.45;64.95;95561.16;5053611;28;20063;-73
2022/11/01 02:53:51;;;;;;;5.60;3.85;;;;;;;10.50;64.96;95572.88;5050141;28;20039;-73
2022/11/01 02:56:16;;;;;;;6.15;3.90;;;;;;;10.45;65.06;95563.75;5067499;28;20028;-73
2022/11/01 02:58:42;;;;;;;5.95;3.85;;;;;;;10.46;64.93;95568.81;5049411;28;20054;-73
2022/11/01 03:01:14;;;;;;;7.10;3.90;;;;;;;10.56;64.68;95576.81;5038487;28;20505;-73
2022/11/01 03:03:40;;;;;;;7.50;3.65;;;;;;;10.60;64.10;95569.63;5066143;28;20040;-73
2022/11/01 03:06:07;;;;;;;5.82;3.58;;;;;;;10.59;63.70;95578.38;5052309;28;20039;-73
2022/11/01 03:08:49;;;;;;;8.15;3.97;;;;;;;10.62;63.35;95583.34;5068414;28;20086;-73
2022/11/01 03:11:19;;;;;;;6.75;3.67;;;;;;;10.62;63.77;95578.16;5065322;28;20451;-73
2022/11/01 03:14:05;;;;;;;6.72;3.45;;;;;;;10.66;63.76;95579.56;5035402;28;20036;-73
2022/11/01 03:16:52;;;;;;;6.82;3.50;;;;;;;10.72;63.69;95589.53;5060757;28;20029;-73
2022/11/01 03:19:38;;;;;;;7.38;3.78;;;;;;;10.65;63.93;95578.75;5066346;28;20127;-73
2022/11/01 03:22:29;;;;;;;7.72;3.60;;;;;;;10.45;63.43;95550.78;5050252;28;20033;-73
2022/11/01 03:28:05;;;;;;;8.93;3.50;;;;;;;10.49;63.68;95581.59;5065789;28;20044;-73
2022/11/01 03:30:30;;;;;;;6.80;3.63;;;;;;;10.54;63.72;95580.47;5028728;28;20555;-73
2022/11/01 03:32:56;;;;;;;7.85;3.97;;;;;;;10.55;63.94;95572.53;5038437;28;20052;-73
2022/11/01 03:35:26;;;;;;;7.85;3.63;;;;;;;10.53;63.66;95584.84;5038727;28;20021;-73
2022/11/01 03:38:03;;;;;;;9.07;3.75;;;;;;;10.38;63.69;95554.72;5047461;28;20046;-73
2022/11/01 03:40:29;;;;;;;6.13;3.90;;;;;;;10.38;63.31;95576.31;5044955;28;20075;-73
2022/11/01 03:42:58;;;;;;;9.30;4.03;;;;;;;10.45;64.07;95577.56;5067549;28;20571;-73
2022/11/01 03:45:23;;;;;;;7.80;4.72;;;;;;;10.56;63.47;95579.41;5072341;28;20112;-73
2022/11/01 03:47:49;;;;;;;9.05;3.88;;;;;;;10.35;63.74;95571.34;5055895;28;20107;-73
2022/11/01 03:50:24;;;;;;;6.35;3.78;;;;;;;10.31;63.85;95576.84;5073266;28;20103;-73
2022/11/01 03:52:50;;;;;;;7.32;3.80;;;;;;;10.29;63.30;95571.78;5055717;28;20035;-73
2022/11/01 03:55:19;;;;;;;9.63;4.25;;;;;;;10.08;63.91;95566.25;5072466;28;20028;-73
2022/11/01 03:57:48;;;;;;;6.70;4.30;;;;;;;9.92;64.53;95576.03;5072273;28;20020;-73
2022/11/01 04:00:18;;;;;;;7.63;4.13;;;;;;;9.87;64.72;95580.72;5065169;28;20478;-73
2022/11/01 04:02:43;;;;;;;8.75;6.22;;;;;;;9.77;65.44;95576.13;5057522;28;20214;-72
2022/11/01 04:05:09;;;;;;;10.60;5.55;;;;;;;9.67;65.90;95571.66;5060761;28;20430;-73
2022/11/01 04:07:35;;;;;;;15.02;7.93;;;;;;;9.57;65.89;95579.25;5057575;28;20041;-73
2022/11/01 04:10:00;;;;;;;25.20;12.40;;;;;;;9.39;66.00;95561.41;5058879;28;20494;-73
2022/11/01 04:12:26;;;;;;;11.27;6.57;;;;;;;9.45;65.83;95585.25;5054674;28;20028;-73
2022/11/01 04:20:35;;;;;;;8.23;4.35;;;;;;;9.30;65.44;95587.09;5072513;28;20418;-73
2022/11/01 04:23:05;;;;;;;7.85;4.18;;;;;;;9.07;66.08;95584.22;5051186;28;20036;-72
2022/11/01 04:25:30;;;;;;;5.68;3.58;;;;;;;8.82;65.93;95546.09;5050011;28;20067;-73
2022/11/01 04:27:56;;;;;;;9.07;4.38;;;;;;;8.97;65.94;95588.38;5047564;28;20033;-72
2022/11/01 04:30:26;;;;;;;7.90;4.65;;;;;;;8.90;66.20;95580.13;5067987;28;20037;-73
2022/11/01 04:32:51;;;;;;;11.05;6.18;;;;;;;8.88;67.13;95573.38;5050397;28;20039;-72
2022/11/01 04:35:17;;;;;;;10.00;6.38;;;;;;;8.95;67.00;95585.84;5066561;28;20111;-73
2022/11/01 04:37:42;;;;;;;12.82;6.60;;;;;;;8.93;67.21;95579.94;5065557;28;20059;-72
2022/11/01 04:40:08;;;;;;;15.38;8.75;;;;;;;8.87;67.60;95580.34;5049871;28;20429;-73
2022/11/01 04:42:34;;;;;;;16.42;9.35;;;;;;;8.81;68.68;95579.91;5067122;28;20044;-72
2022/11/01 04:45:00;;;;;;;12.15;6.60;;;;;;;8.66;70.02;95576.50;5068694;28;20033;-73
2022/11/01 04:47:26;;;;;;;18.73;10.50;;;;;;;8.66;70.07;95576.50;5065338;28;20043;-72
2022/11/01 04:49:51;;;;;;;17.75;11.00;;;;;;;8.73;69.70;95583.78;5068607;28;20032;-73
2022/11/01 04:52:17;;;;;;;21.23;10.75;;;;;;;8.69;70.27;95581.50;5066255;28;20044;-72
2022/11/01 04:54:42;;;;;;;17.42;10.20;;;;;;;8.67;70.29;95589.38;5034274;28;20032;-72
2022/11/01 04:57:21;;;;;;;13.77;8.82;;;;;;;8.65;70.46;95591.22;5069255;28;20029;-73
2022/11/01 04:59:50;;;;;;;14.60;9.02;;;;;;;8.69;69.89;95582.34;5067864;28;20029;-73
2022/11/01 05:02:15;;;;;;;21.15;10.18;;;;;;;8.77;69.70;95594.78;5066954;28;20075;-73
2022/11/01 05:04:41;;;;;;;31.77;18.60;;;;;;;8.39;69.96;95554.00;5067240;28;20502;-73
2022/11/01 05:07:06;;;;;;;18.95;8.20;;;;;;;8.58;69.30;95596.88;5068034;28;20053;-73
2022/11/01 05:09:32;;;;;;;13.13;8.93;;;;;;;8.65;69.32;95585.22;5069893;28;20125;-72
2022/11/01 05:11:57;;;;;;;14.73;9.25;;;;;;;8.56;69.38;95603.94;5068591;28;20097;-73
2022/11/01 05:14:22;;;;;;;13.40;9.18;;;;;;;8.62;69.46;95601.78;5049152;28;20044;-73
2022/11/01 05:16:48;;;;;;;14.57;9.02;;;;;;;8.61;69.24;95594.09;5069711;28;20048;-72
2022/11/01 05:19:14;;;;;;;12.00;7.63;;;;;;;8.49;68.90;95599.09;5068175;28;20031;-72
2022/11/01 05:21:40;;;;;;;13.93;7.35;;;;;;;8.30;68.97;95595.94;5045443;28;20040;-72
2022/11/01 05:24:06;;;;;;;8.73;5.88;;;;;;;8.35;69.38;95617.22;5053460;28;20045;-72
2022/11/01 05:26:31;;;;;;;8.95;5.60;;;;;;;8.46;68.93;95622.59;5050534;28;20481;-72
2022/11/01 05:28:57;;;;;;;9.95;6.13;;;;;;;8.46;68.73;95617.41;5050817;28;20103;-72
2022/11/01 05:31:22;;;;;;;12.43;7.05;;;;;;;8.26;70.29;95628.97;5068053;28;20089;-72
2022/11/01 05:33:48;;;;;;;10.52;5.90;;;;;;;8.46;69.55;95627.78;5071187;28;20040;-72
2022/11/01 05:36:13;;;;;;;9.32;5.47;;;;;;;8.44;69.52;95627.06;5071640;28;20027;-73
2022/11/01 05:38:39;;;;;;;6.75;4.63;;;;;;;8.48;69.33;95623.34;5066516;28;20551;-72
2022/11/01 05:41:04;;;;;;;11.38;6.20;;;;;;;8.56;69.32;95632.41;5070229;28;20029;-72
2022/11/01 05:43:30;;;;;;;10.75;5.80;;;;;;;8.61;70.07;95630.34;5071256;28;20029;-73
2022/11/01 05:45:55;;;;;;;9.50;5.80;;;;;;;8.43;70.33;95625.38;5067498;28;20048;-72
2022/11/01 05:48:21;;;;;;;9.05;5.38;;;;;;;8.29;70.48;95631.38;5052553;28;20041;-73
2022/11/01 05:50:46;;;;;;;12.82;6.78;;;;;;;8.34;71.16;95633.69;5052271;28;20060;-73
2022/11/01 05:53:12;;;;;;;11.68;5.53;;;;;;;8.37;70.70;95637.84;5054902;28;20028;-73
2022/11/01 05:55:38;;;;;;;12.32;6.53;;;;;;;8.48;70.88;95644.06;5070139;28;20029;-73
2022/11/01 05:58:04;;;;;;;21.95;11.52;;;;;;;8.33;71.52;95638.94;5049553;28;20048;-72
2022/11/01 06:00:30;;;;;;;14.10;8.27;;;;;;;8.12;73.02;95659.22;5036401;28;20024;-74
2022/11/01 06:02:58;;;;;;;16.67;9.70;;;;;;;8.23;72.25;95656.81;5057079;28;20033;-72
2022/11/01 06:05:24;;;;;;;21.90;11.15;;;;;;;8.32;71.77;95651.06;5045710;28;20453;-73
2022/11/01 06:07:50;;;;;;;17.60;10.85;;;;;;;8.36;71.71;95649.13;5047195;28;20410;-72
2022/11/01 06:10:15;;;;;;;17.05;12.00;;;;;;;8.49;71.29;95650.06;5063127;28;20123;-73
2022/11/01 06:12:41;;;;;;;18.88;10.73;;;;;;;8.44;71.53;95652.09;5057309;28;20125;-72
2022/11/01 06:15:07;;;;;;;15.82;9.43;;;;;;;8.52;71.47;95649.88;5069727;28;20020;-72
2022/11/01 06:17:32;;;;;;;12.40;8.50;;;;;;;8.58;70.99;95653.84;5064218;28;20060;-73
2022/11/01 06:19:58;;;;;;;12.98;7.93;;;;;;;8.56;71.18;95653.97;5066512;28;20035;-72
2022/11/01 06:22:24;;;;;;;11.30;7.53;;;;;;;8.52;70.78;95647.28;5057766;28;20471;-74
2022/11/01 06:24:49;;;;;;;12.00;7.78;;;;;;;8.60;70.73;95654.59;5054800;28;20020;-73
2022/11/01 06:27:14;;;;;;;10.75;7.07;;;;;;;8.65;70.49;95657.75;5054322;28;20040;-72
2022/11/01 06:29:40;;;;;;;14.02;6.72;;;;;;;8.65;70.29;95657.75;5051438;28;20032;-73
2022/11/01 06:32:05;;;;;;;10.80;7.47;;;;;;;8.73;69.94;95661.50;5063362;28;20029;-76
2022/11/01 06:34:31;;;;;;;12.07;7.53;;;;;;;8.60;69.35;95632.09;5066683;28;20036;-74
2022/11/01 06:36:56;;;;;;;9.90;7.22;;;;;;;8.82;69.54;95660.09;5075592;28;20040;-74
2022/11/01 06:39:22;;;;;;;12.52;6.82;;;;;;;8.83;69.83;95664.38;5036455;28;20044;-73
2022/11/01 06:41:47;;;;;;;13.75;7.25;;;;;;;8.92;69.73;95666.38;5062901;28;20033;-72
2022/11/01 06:44:12;;;;;;;9.98;5.97;;;;;;;9.19;69.61;95668.13;5052886;28;20039;-73
2022/11/01 06:46:38;;;;;;;8.68;5.82;;;;;;;9.40;68.72;95656.41;5064054;28;20470;-73
2022/11/01 06:49:03;;;;;;;13.05;6.35;;;;;;;9.65;68.18;95665.19;5054560;28;20100;-74
2022/11/01 06:51:29;;;;;;;11.15;5.60;;;;;;;9.68;67.84;95649.41;5063245;28;20028;-74
2022/11/01 06:53:54;;;;;;;13.88;6.82;;;;;;;10.05;67.03;95646.94;5067791;28;20407;-73
2022/11/01 06:56:20;;;;;;;10.10;5.30;;;;;;;10.54;65.60;95650.59;5053326;28;20416;-76
2022/11/01 06:58:49;;;;;;;9.10;5.35;;;;;;;10.76;64.91;95652.53;5063012;28;20036;-75
2022/11/01 07:01:17;;;;;;;9.38;6.43;;;;;;;10.99;64.37;95664.72;5071764;28;20036;-75
2022/11/01 07:03:43;;;;;;;11.77;6.43;;;;;;;11.28;63.68;95654.00;5047093;28;20040;-74
2022/11/01 07:06:09;;;;;;;12.43;5.95;;;;;;;12.11;61.58;95653.13;5058869;28;20457;-75
2022/11/01 07:08:34;;;;;;;12.98;6.78;;;;;;;12.64;59.58;95656.00;5066371;28;20621;-74
2022/11/01 07:10:59;;;;;;;15.45;7.35;;;;;;;13.20;57.76;95650.69;5064536;28;20072;-74
2022/11/01 07:13:25;;;;;;;11.95;7.60;;;;;;;13.85;55.91;95644.56;5053708;28;20041;-74
2022/11/01 07:15:50;;;;;;;15.45;7.35;;;;;;;14.52;54.17;95653.75;5064933;28;20020;-74
2022/11/01 07:18:16;;;;;;;13.23;7.22;;;;;;;15.17;52.28;95637.72;5071119;28;20032;-74
2022/11/01 07:20:41;;;;;;;19.40;7.82;;;;;;;16.02;50.25;95650.19;5072090;28;20124;-75
2022/11/01 07:23:12;;;;;;;18.25;7.30;;;;;;;16.87;48.18;95645.78;5050157;28;20114;-74
2022/11/01 07:25:38;;;;;;;10.90;7.10;;;;;;;17.86;45.56;95643.22;5050772;28;20473;-74
2022/11/01 07:28:03;;;;;;;12.48;6.10;;;;;;;18.50;44.46;95643.03;5057372;28;20078;-74
2022/11/01 07:30:29;;;;;;;13.10;6.90;;;;;;;19.07;42.82;95624.06;5066631;28;20302;-74
2022/11/01 07:32:58;;;;;;;11.63;7.20;;;;;;;19.49;41.64;95637.16;5055779;28;20043;-74
2022/11/01 07:35:24;;;;;;;10.82;6.47;;;;;;;19.84;40.91;95635.25;5036486;28;20131;-74
2022/11/01 07:37:52;;;;;;;12.63;6.60;;;;;;;20.49;39.56;95637.84;5059926;28;20157;-74
2022/11/01 07:40:17;;;;;;;9.55;6.43;;;;;;;21.12;38.03;95644.09;5072192;28;20043;-74
2022/11/01 07:42:43;;;;;;;13.18;7.80;;;;;;;21.22;37.55;95640.41;5072594;28;20029;-74
2022/11/01 07:45:09;;;;;;;14.60;8.10;;;;;;;21.04;38.14;95632.75;5055219;28;20029;-75
2022/11/01 07:47:35;;;;;;;18.50;7.97;;;;;;;21.22;38.07;95643.06;5055370;28;20040;-75
2022/11/01 07:50:00;;;;;;;11.02;7.15;;;;;;;20.41;38.97;95629.94;5073694;28;20475;-74
2022/11/01 07:52:26;;;;;;;11.57;6.68;;;;;;;19.43;40.93;95629.91;5072248;28;20068;-74
2022/11/01 07:54:51;;;;;;;13.35;6.43;;;;;;;19.09;42.34;95643.97;5072399;28;20043;-74
2022/11/01 07:57:17;;;;;;;12.00;6.43;;;;;;;19.04;42.36;95640.19;5055524;28;20040;-74
2022/11/01 07:59:42;;;;;;;11.07;6.03;;;;;;;18.67;43.29;95628.16;5073504;28;20025;-74
2022/11/01 08:02:08;;;;;;;10.73;5.50;;;;;;;18.23;44.01;95639.56;5055551;28;20048;-74
2022/11/01 08:04:34;;;;;;;20.75;13.05;;;;;;;18.17;44.49;95636.72;5071933;28;20028;-74
2022/11/01 08:06:59;;;;;;;12.63;7.57;;;;;;;18.05;44.53;95631.72;5055328;28;20036;-74
2022/11/01 08:09:25;;;;;;;9.35;6.18;;;;;;;18.04;44.43;95635.31;5053930;28;20060;-74
2022/11/01 08:11:50;;;;;;;12.10;6.63;;;;;;;17.99;45.12;95634.13;5055350;28;20036;-74
2022/11/01 08:14:16;;;;;;;15.88;6.28;;;;;;;17.87;45.55;95630.91;5071945;28;20033;-74
2022/11/01 08:16:41;;;;;;;16.48;5.97;;;;;;;17.94;45.07;95629.34;5071933;28;20036;-74
2022/11/01 08:19:06;;;;;;;11.18;5.70;;;;;;;17.95;45.08;95632.78;5071778;28;20029;-74
2022/11/01 08:21:32;;;;;;;8.10;5.45;;;;;;;17.92;45.10;95628.66;5038474;28;20090;-74
2022/11/01 08:23:57;;;;;;;9.45;5.15;;;;;;;17.89;45.19;95628.97;5054984;28;20033;-74
2022/11/01 08:26:23;;;;;;;11.63;5.70;;;;;;;17.90;45.13;95629.78;5054983;28;20051;-74
2022/11/01 08:28:49;;;;;;;12.90;5.75;;;;;;;17.81;45.05;95621.84;5072961;28;20020;-74
2022/11/01 08:31:15;;;;;;;9.95;5.45;;;;;;;17.74;45.29;95618.13;5071645;28;20048;-74
2022/11/01 08:33:40;;;;;;;14.45;6.40;;;;;;;17.74;45.62;95622.56;5071641;28;20067;-74
2022/11/01 08:36:06;;;;;;;10.52;5.90;;;;;;;17.77;45.47;95607.31;5071710;28;20025;-74
2022/11/01 08:38:31;;;;;;;14.32;6.07;;;;;;;17.77;45.53;95623.06;5073190;28;20024;-74
2022/11/01 08:40:57;;;;;;;13.15;6.50;;;;;;;17.56;45.86;95591.88;5054883;28;20040;-74
2022/11/01 08:43:23;;;;;;;12.27;6.30;;;;;;;17.71;45.80;95621.06;5071588;28;20067;-74
2022/11/01 08:45:48;;;;;;;10.00;5.90;;;;;;;17.53;46.09;95609.75;5072576;28;20032;-74
2022/11/01 08:48:14;;;;;;;9.82;5.90;;;;;;;17.53;46.11;95613.19;5054854;28;20036;-74
2022/11/01 08:50:39;;;;;;;10.60;5.95;;;;;;;17.60;46.12;95610.78;5072507;28;20039;-74
2022/11/01 08:53:12;;;;;;;10.20;6.25;;;;;;;17.68;45.71;95602.97;5072753;28;20040;-73
2022/11/01 08:55:38;;;;;;;11.88;6.35;;;;;;;17.73;45.83;95605.97;5055408;28;20427;-74
2022/11/01 08:58:03;;;;;;;11.88;5.80;;;;;;;17.98;45.06;95606.19;5038017;28;20025;-74
2022/11/01 09:00:29;;;;;;;11.15;5.90;;;;;;;17.71;45.18;95607.91;5071162;28;20029;-74
2022/11/01 09:02:54;;;;;;;11.13;5.60;;;;;;;17.89;45.28;95604.50;5071208;28;20410;-74
2022/11/01 09:05:21;;;;;;;11.52;6.40;;;;;;;18.04;44.89;95609.03;5087769;28;20040;-74
2022/11/01 09:07:46;;;;;;;15.43;5.93;;;;;;;17.95;44.89;95594.19;5071068;28;20130;-74
2022/11/01 09:10:11;;;;;;;13.65;7.30;;;;;;;18.10;44.59;95604.94;5054312;28;20056;-75
2022/11/01 09:12:37;;;;;;;9.10;5.55;;;;;;;18.12;44.63;95605.63;5070866;28;20035;-74
2022/11/01 09:15:04;;;;;;;17.38;8.35;;;;;;;18.07;45.20;95594.75;5054136;28;20490;-74
2022/11/01 09:17:29;;;;;;;12.80;7.03;;;;;;;18.20;44.81;95591.72;5070747;28;20056;-75
2022/11/01 09:19:55;;;;;;;12.10;6.13;;;;;;;18.34;44.31;95593.78;5071985;28;20043;-75
2022/11/01 09:22:20;;;;;;;13.40;5.90;;;;;;;18.09;44.32;95588.34;5070313;28;20037;-75
2022/11/01 09:24:46;;;;;;;14.27;6.43;;;;;;;17.92;45.39;95583.97;5054252;28;20035;-75
2022/11/01 09:27:11;;;;;;;8.63;4.95;;;;;;;18.08;44.46;95586.72;5053963;28;20501;-75
2022/11/01 09:29:36;;;;;;;12.10;5.40;;;;;;;17.97;44.78;95580.88;5070579;28;20041;-75
2022/11/01 09:32:02;;;;;;;6.95;4.72;;;;;;;18.26;44.21;95584.03;5053835;28;20032;-75
2022/11/01 09:34:27;;;;;;;11.57;5.30;;;;;;;18.31;43.92;95578.31;5071628;28;20044;-75
2022/11/01 09:36:53;;;;;;;10.80;5.30;;;;;;;18.49;43.98;95580.84;5070483;28;20513;-74
2022/11/01 09:39:20;;;;;;;10.10;5.15;;;;;;;18.65;43.43;95577.47;5070323;28;20474;-74
2022/11/01 09:42:06;;;;;;;7.03;4.95;;;;;;;18.67;43.33;95576.34;5070398;28;20032;-75
2022/11/01 09:44:43;;;;;;;11.07;5.38;;;;;;;18.78;43.44;95574.41;5053762;28;20031;-75
2022/11/01 09:47:14;;;;;;;11.48;5.47;;;;;;;18.91;42.59;95564.25;5070259;28;20043;-75
2022/11/01 09:49:39;;;;;;;;;;;;;;;18.88;42.88;95564.59;5054187;28;20038;-75
2022/11/01 09:52:05;;;;;;;11.68;5.10;;;;;;;18.82;42.61;95555.53;5070169;28;19921;-75
2022/11/01 09:54:30;;;;;;;12.32;5.05;;;;;;;18.89;42.44;95545.19;5053401;28;20482;-75
2022/11/01 09:57:14;;;;;;;9.90;4.90;;;;;;;18.91;42.15;95554.56;5070070;28;20060;-75
2022/11/01 09:59:46;;;;;;;13.68;5.13;;;;;;;19.15;41.83;95551.16;5070079;28;20393;-75
2022/11/01 10:02:33;;;;;;;10.75;5.13;;;;;;;19.21;41.83;95544.44;5054295;28;20033;-75
2022/11/01 10:05:12;;;;;;;8.57;5.03;;;;;;;19.03;42.25;95520.88;5069829;28;20060;-75
2022/11/01 10:07:56;;;;;;;10.40;5.15;;;;;;;19.31;41.90;95544.28;5054713;28;20041;-75
2022/11/01 10:10:27;;;;;;;11.98;5.43;;;;;;;19.46;41.40;95531.28;5070921;28;20071;-75
2022/11/01 10:12:59;;;;;;;13.63;5.45;;;;;;;19.49;41.41;95536.22;5071330;28;20060;-75
2022/11/01 10:15:42;;;;;;;7.35;4.70;;;;;;;19.56;41.58;95532.78;5071048;28;20532;-75
2022/11/01 10:18:19;;;;;;;10.95;5.13;;;;;;;19.56;41.22;95522.22;5069799;28;20066;-75
2022/11/01 10:20:44;;;;;;;13.80;5.95;;;;;;;19.65;41.01;95525.69;5053681;28;20029;-75
2022/11/01 10:23:11;;;;;;;9.00;5.18;;;;;;;19.68;41.08;95522.75;5069552;28;20032;-75
2022/11/01 10:25:37;;;;;;;19.73;5.70;;;;;;;19.64;40.72;95518.78;5069625;28;20021;-75
2022/11/01 10:28:38;;;;;;;12.40;4.88;;;;;;;19.81;41.00;95520.44;5053078;28;20029;-75
2022/11/01 10:31:04;;;;;;;9.80;4.82;;;;;;;19.89;40.64;95516.13;5069726;28;20036;-75
2022/11/01 10:33:38;;;;;;;8.27;4.72;;;;;;;20.02;40.18;95506.69;5052371;28;20036;-75
2022/11/01 10:36:15;;;;;;;12.00;5.28;;;;;;;19.96;40.17;95496.84;5053080;28;20150;-75
2022/11/01 10:38:43;;;;;;;14.27;4.88;;;;;;;20.01;40.28;95496.34;5053022;28;20503;-75
2022/11/01 10:41:15;;;;;;;9.80;4.78;;;;;;;20.20;39.65;95500.41;5053127;28;20032;-75
2022/11/01 10:43:46;;;;;;;9.50;4.47;;;;;;;20.18;39.81;95502.38;5070530;28;20407;-75
2022/11/01 10:46:16;;;;;;;8.93;4.63;;;;;;;20.23;39.44;95492.16;5053376;28;20039;-75
2022/11/01 10:48:47;;;;;;;12.80;5.53;;;;;;;20.07;39.07;95470.09;5053518;28;20059;-75
2022/11/01 10:51:13;;;;;;;;;;;;;;;20.29;39.56;95497.56;5053819;28;20426;-75
2022/11/01 10:53:43;;;;;;;11.43;4.75;;;;;;;20.37;39.64;95494.06;5086022;28;19927;-75
2022/11/01 10:56:08;;;;;;;12.55;4.68;;;;;;;20.40;39.38;95485.81;5069368;28;20163;-75
2022/11/01 10:58:40;;;;;;;8.65;4.50;;;;;;;20.38;39.06;95474.59;5052607;28;20550;-75
2022/11/01 11:01:06;;;;;;;11.57;4.75;;;;;;;20.43;39.08;95482.84;5036143;28;20035;-75
2022/11/01 11:03:32;;;;;;;10.13;4.93;;;;;;;20.45;39.22;95480.03;5052889;28;20036;-75
2022/11/01 11:05:59;;;;;;;11.43;4.63;;;;;;;20.56;39.19;95481.47;5069324;28;20036;-75
2022/11/01 11:08:25;;;;;;;25.35;5.30;;;;;;;20.58;38.54;95480.31;5069386;28;20044;-75
2022/11/01 11:10:50;;;;;;;11.82;4.65;;;;;;;20.67;38.82;95475.81;5069401;28;20076;-75
2022/11/01 11:13:19;;;;;;;11.32;5.50;;;;;;;20.71;38.47;95463.94;5069328;28;20060;-75
2022/11/01 11:15:46;;;;;;;8.50;4.90;;;;;;;20.68;38.58;95457.16;5052675;28;20509;-75
2022/11/01 11:18:36;;;;;;;10.68;5.22;;;;;;;20.61;38.59;95466.75;5070717;28;20037;-75
2022/11/01 11:21:11;;;;;;;12.20;4.65;;;;;;;20.67;38.72;95459.97;5054200;28;20017;-75
2022/11/01 11:23:44;;;;;;;11.88;5.25;;;;;;;20.80;38.27;95457.59;5053769;28;20041;-75
2022/11/01 11:26:15;;;;;;;11.35;5.20;;;;;;;20.83;38.34;95459.88;5052529;28;20021;-75
2022/11/01 11:28:43;;;;;;;15.57;5.63;;;;;;;20.85;37.74;95467.63;5052979;28;20041;-75
2022/11/01 11:31:13;;;;;;;12.23;4.93;;;;;;;20.92;38.02;95450.94;5052629;28;20028;-75
2022/11/01 11:33:46;;;;;;;20.15;5.63;;;;;;;21.03;37.90;95462.06;5069216;28;20044;-75
2022/11/01 11:36:12;;;;;;;16.52;5.70;;;;;;;21.05;37.66;95468.81;5036511;28;20024;-75
2022/11/01 11:38:45;;;;;;;16.92;5.38;;;;;;;20.93;37.77;95457.03;5085936;28;20044;-75
2022/11/01 11:41:11;;;;;;;13.20;5.68;;;;;;;20.90;37.81;95457.38;5052720;28;20398;-75
2022/11/01 11:43:40;;;;;;;15.80;5.60;;;;;;;21.00;37.80;95451.84;5052835;28;20037;-75
2022/11/01 11:46:19;;;;;;;8.65;4.80;;;;;;;21.10;37.80;95447.97;5072579;28;20052;-75
2022/11/01 11:48:52;;;;;;;12.10;5.45;;;;;;;21.25;37.48;95442.75;5072676;28;20406;-75
2022/11/01 11:51:20;;;;;;;19.98;6.55;;;;;;;21.24;36.81;95448.22;5073941;28;20027;-75